Aktuell METAR/TAF ESNU/UME

170320Z AUTO VRB02KT 9999 SCT048/// M09/M10 Q1017=

170230Z 1703/1712 VRB01KT CAVOK=
Källa: Luftfartsverket (aro.lfv.se)